Time;durP1;ratioP1;P1;durP2;ratioP2;P2;SDS_P1;SDS_P2;PMS_P1;PMS_P2;Temp;Humidity;BMP_temperature;BMP_pressure;BME280_temperature;BME280_humidity;BME280_pressure;Samples;Min_cycle;Max_cycle;Signal;HPM_P1;HPM_P2
2022/01/02 00:01:19;;;;;;;11.15;8.80;;;;;;;;;;5074425;28;20380;-76
2022/01/02 00:03:47;;;;;;;11.90;7.97;;;;;;;;;;5055889;28;20068;-75
2022/01/02 00:06:15;;;;;;;12.75;7.70;;;;;;;;;;5054779;28;20053;-75
2022/01/02 00:08:42;;;;;;;14.07;8.40;;;;;;;;;;5037918;28;20412;-74
2022/01/02 00:11:10;;;;;;;12.82;8.43;;;;;;;;;;5055918;28;20090;-75
2022/01/02 00:13:39;;;;;;;12.35;7.72;;;;;;;;;;5054128;28;20090;-75
2022/01/02 00:16:07;;;;;;;11.40;7.57;;;;;;;;;;5074244;28;20071;-75
2022/01/02 00:18:36;;;;;;;11.25;8.00;;;;;;;;;;5037830;28;20060;-75
2022/01/02 00:21:10;;;;;;;13.73;8.32;;;;;;;;;;5055326;28;20451;-75
2022/01/02 00:23:51;;;;;;;16.60;8.68;;;;;;;;;;5059541;28;20062;-75
2022/01/02 00:26:19;;;;;;;14.07;8.75;;;;;;;;;;5072452;28;20075;-77
2022/01/02 00:28:48;;;;;;;14.13;8.55;;;;;;;;;;5072638;28;20052;-75
2022/01/02 00:31:15;;;;;;;11.57;7.55;;;;;;;;;;5060337;28;20053;-75
2022/01/02 00:33:41;;;;;;;14.70;8.05;;;;;;;;;;5054571;28;20173;-77
2022/01/02 00:36:08;;;;;;;11.38;8.13;;;;;;;;;;5055141;28;20055;-77
2022/01/02 00:38:35;;;;;;;14.05;8.60;;;;;;;;;;5054657;28;20094;-75
2022/01/02 00:41:01;;;;;;;14.45;8.95;;;;;;;;;;5054435;28;20045;-75
2022/01/02 00:43:47;;;;;;;13.25;8.43;;;;;;;;;;5054200;28;20048;-75
2022/01/02 00:46:14;;;;;;;13.93;8.60;;;;;;;;;;5054120;28;20057;-75
2022/01/02 00:48:42;;;;;;;11.95;8.10;;;;;;;;;;5054961;28;20075;-74
2022/01/02 00:51:21;;;;;;;12.13;8.18;;;;;;;;;;5053178;28;20483;-76
2022/01/02 00:53:48;;;;;;;12.27;8.50;;;;;;;;;;5056062;28;20056;-76
2022/01/02 00:56:15;;;;;;;13.05;8.98;;;;;;;;;;5067832;28;20044;-74
2022/01/02 00:58:50;;;;;;;13.73;8.70;;;;;;;;;;5068004;28;20060;-76
2022/01/02 01:01:20;;;;;;;11.77;8.32;;;;;;;;;;5073661;28;20055;-76
2022/01/02 01:03:47;;;;;;;14.50;8.93;;;;;;;;;;5074391;28;20052;-77
2022/01/02 01:06:14;;;;;;;14.05;8.05;;;;;;;;;;5073550;28;20049;-74
2022/01/02 01:08:41;;;;;;;11.38;8.90;;;;;;;;;;5073614;28;20053;-73
2022/01/02 01:11:11;;;;;;;13.65;8.25;;;;;;;;;;5072985;28;20067;-74
2022/01/02 01:13:37;;;;;;;15.60;9.40;;;;;;;;;;5072523;28;20547;-75
2022/01/02 01:16:03;;;;;;;11.80;8.23;;;;;;;;;;5073863;28;20051;-73
2022/01/02 01:18:30;;;;;;;13.43;8.38;;;;;;;;;;5066599;28;20049;-76
2022/01/02 01:20:56;;;;;;;13.50;8.68;;;;;;;;;;5062104;28;20049;-75
2022/01/02 01:23:22;;;;;;;14.45;8.60;;;;;;;;;;5054233;28;20056;-76
2022/01/02 01:25:49;;;;;;;14.02;8.70;;;;;;;;;;5065349;28;20456;-76
2022/01/02 01:28:15;;;;;;;12.80;9.05;;;;;;;;;;5054336;28;20480;-75
2022/01/02 01:30:42;;;;;;;15.52;9.18;;;;;;;;;;5054361;28;20187;-76
2022/01/02 01:33:08;;;;;;;13.93;9.50;;;;;;;;;;5053494;28;20523;-76
2022/01/02 01:35:34;;;;;;;16.25;9.07;;;;;;;;;;5053571;28;20064;-75
2022/01/02 01:38:01;;;;;;;15.23;9.70;;;;;;;;;;5054718;28;20041;-75
2022/01/02 01:40:29;;;;;;;12.82;9.27;;;;;;;;;;5058264;28;20045;-75
2022/01/02 01:42:58;;;;;;;12.40;9.27;;;;;;;;;;5057596;28;20056;-74
2022/01/02 01:47:55;;;;;;;16.98;9.95;;;;;;;;;;5067571;28;20106;-75
2022/01/02 01:50:24;;;;;;;18.52;10.85;;;;;;;;;;5077367;28;20048;-75
2022/01/02 01:52:50;;;;;;;14.20;9.95;;;;;;;;;;5076537;28;20056;-75
2022/01/02 01:55:16;;;;;;;14.98;9.80;;;;;;;;;;5075074;28;20045;-76
2022/01/02 01:57:43;;;;;;;17.02;10.25;;;;;;;;;;5060405;28;20045;-74
2022/01/02 02:00:13;;;;;;;16.98;10.55;;;;;;;;;;5059328;28;20044;-77
2022/01/02 02:02:39;;;;;;;14.20;10.00;;;;;;;;;;5077987;28;20448;-76
2022/01/02 02:05:05;;;;;;;15.52;10.45;;;;;;;;;;5077821;28;20060;-75
2022/01/02 02:07:39;;;;;;;18.00;9.98;;;;;;;;;;5076955;28;20044;-76
2022/01/02 02:10:14;;;;;;;16.02;9.93;;;;;;;;;;5076557;28;20380;-74
2022/01/02 02:12:41;;;;;;;18.27;10.80;;;;;;;;;;5076249;28;20044;-76
2022/01/02 02:15:08;;;;;;;18.58;10.88;;;;;;;;;;5076973;28;20124;-76
2022/01/02 02:17:34;;;;;;;15.23;9.68;;;;;;;;;;5077441;28;20059;-76
2022/01/02 02:20:13;;;;;;;17.08;11.10;;;;;;;;;;5076585;28;20526;-76
2022/01/02 02:22:41;;;;;;;16.35;11.13;;;;;;;;;;5066901;28;20068;-77
2022/01/02 02:25:07;;;;;;;25.27;11.32;;;;;;;;;;5057630;28;20061;-76
2022/01/02 02:27:34;;;;;;;17.65;10.95;;;;;;;;;;5064446;28;20084;-77
2022/01/02 02:30:00;;;;;;;18.90;11.40;;;;;;;;;;5074516;28;20072;-76
2022/01/02 02:32:26;;;;;;;16.45;11.10;;;;;;;;;;5076484;28;20048;-76
2022/01/02 02:34:52;;;;;;;17.98;11.93;;;;;;;;;;5077537;28;20121;-75
2022/01/02 02:37:19;;;;;;;20.75;12.50;;;;;;;;;;5076845;28;20045;-76
2022/01/02 02:39:45;;;;;;;17.88;11.75;;;;;;;;;;5077415;28;20056;-76
2022/01/02 02:42:23;;;;;;;19.70;12.85;;;;;;;;;;5076572;28;20052;-76
2022/01/02 02:44:58;;;;;;;21.60;13.07;;;;;;;;;;5063897;28;20072;-77
2022/01/02 02:50:08;;;;;;;21.15;12.82;;;;;;;;;;5056122;28;20049;-76
2022/01/02 02:52:47;;;;;;;22.00;12.68;;;;;;;;;;5056227;28;20110;-87
2022/01/02 02:55:43;;;;;;;22.13;13.80;;;;;;;;;;5041779;28;20041;-85
2022/01/02 02:58:41;;;;;;;22.50;12.77;;;;;;;;;;5055897;28;20041;-85
2022/01/02 03:01:11;;;;;;;19.10;12.80;;;;;;;;;;5055760;28;20395;-84
2022/01/02 03:03:37;;;;;;;18.00;12.93;;;;;;;;;;5059003;28;20037;-84
2022/01/02 03:06:03;;;;;;;18.73;13.55;;;;;;;;;;5059532;28;20066;-85
2022/01/02 03:12:18;;;;;;;20.48;13.50;;;;;;;;;;5036595;28;20571;-85
2022/01/02 03:14:44;;;;;;;20.52;13.55;;;;;;;;;;5017239;28;20128;-84
2022/01/02 03:17:11;;;;;;;19.58;13.38;;;;;;;;;;5019406;28;20457;-85
2022/01/02 03:19:37;;;;;;;22.75;13.23;;;;;;;;;;5018732;28;20037;-81
2022/01/02 03:22:07;;;;;;;23.27;14.25;;;;;;;;;;5016341;28;20096;-84
2022/01/02 03:24:34;;;;;;;20.77;13.93;;;;;;;;;;5017875;28;20469;-86
2022/01/02 03:27:00;;;;;;;20.92;14.25;;;;;;;;;;4999331;28;20052;-81
2022/01/02 03:29:26;;;;;;;24.45;14.90;;;;;;;;;;5014046;28;20472;-83
2022/01/02 03:31:55;;;;;;;22.88;14.23;;;;;;;;;;5018363;28;20134;-82
2022/01/02 03:34:21;;;;;;;21.48;15.25;;;;;;;;;;5019018;28;20052;-83
2022/01/02 03:40:41;;;;;;;19.77;13.68;;;;;;;;;;5029603;28;20037;-90
2022/01/02 03:46:31;;;;;;;19.67;14.60;;;;;;;;;;4939190;28;20038;-85
2022/01/02 03:48:57;;;;;;;19.90;14.35;;;;;;;;;;4978592;28;20129;-82
2022/01/02 03:51:24;;;;;;;26.25;15.60;;;;;;;;;;4987219;28;20054;-84
2022/01/02 03:54:43;;;;;;;21.20;15.02;;;;;;;;;;4977494;28;20042;-88
2022/01/02 03:57:05;;;;;;;20.42;14.80;;;;;;;;;;4976201;28;20089;-84
2022/01/02 03:59:31;;;;;;;24.20;16.30;;;;;;;;;;4974315;28;20422;-82
2022/01/02 04:01:57;;;;;;;22.63;16.00;;;;;;;;;;4981351;28;20052;-82
2022/01/02 04:04:23;;;;;;;24.80;16.50;;;;;;;;;;4981346;28;20054;-87
2022/01/02 04:06:49;;;;;;;25.30;16.38;;;;;;;;;;4982068;28;20069;-87
2022/01/02 04:09:16;;;;;;;23.50;15.93;;;;;;;;;;5026023;28;20040;-84
2022/01/02 04:11:42;;;;;;;22.63;14.60;;;;;;;;;;5037390;28;20135;-84
2022/01/02 04:14:11;;;;;;;21.75;14.57;;;;;;;;;;5038502;28;20037;-86
2022/01/02 04:16:37;;;;;;;23.13;14.43;;;;;;;;;;5041888;28;20063;-85
2022/01/02 04:19:03;;;;;;;22.92;15.00;;;;;;;;;;5057944;28;20036;-83
2022/01/02 04:21:29;;;;;;;22.52;14.40;;;;;;;;;;5045330;28;20041;-85
2022/01/02 04:23:55;;;;;;;23.92;15.00;;;;;;;;;;5048213;28;20062;-86
2022/01/02 04:26:21;;;;;;;21.48;14.35;;;;;;;;;;5057639;28;20050;-86
2022/01/02 04:28:50;;;;;;;19.55;14.13;;;;;;;;;;5056514;28;20063;-85
2022/01/02 04:31:19;;;;;;;20.83;14.10;;;;;;;;;;5037884;28;20501;-84
2022/01/02 04:33:45;;;;;;;20.85;13.30;;;;;;;;;;5037716;28;20037;-85
2022/01/02 04:43:13;;;;;;;20.90;13.27;;;;;;;;;;5008783;28;20067;-84
2022/01/02 04:45:40;;;;;;;20.80;12.65;;;;;;;;;;5037635;28;20037;-84
2022/01/02 04:48:06;;;;;;;19.70;13.18;;;;;;;;;;5057062;28;20109;-84
2022/01/02 04:50:34;;;;;;;19.08;12.10;;;;;;;;;;5056161;28;20052;-86
2022/01/02 04:53:01;;;;;;;19.05;12.80;;;;;;;;;;5056422;28;20356;-87
2022/01/02 05:05:41;;;;;;;24.73;12.55;;;;;;;;;;4935784;28;20058;-87
2022/01/02 05:08:07;;;;;;;22.17;13.65;;;;;;;;;;4957344;28;20047;-82
2022/01/02 05:10:33;;;;;;;21.00;13.50;;;;;;;;;;5044578;28;20049;-80
2022/01/02 05:12:59;;;;;;;21.63;13.25;;;;;;;;;;5037978;28;20071;-83
2022/01/02 05:22:25;;;;;;;23.75;13.63;;;;;;;;;;5009146;28;20128;-86
2022/01/02 05:25:03;;;;;;;18.95;13.05;;;;;;;;;;4979646;28;20385;-86
2022/01/02 05:34:19;;;;;;;18.23;12.80;;;;;;;;;;4939911;28;20145;-85
2022/01/02 05:36:48;;;;;;;21.08;13.63;;;;;;;;;;4976399;28;20061;-83
2022/01/02 05:39:21;;;;;;;22.65;14.82;;;;;;;;;;5020298;28;20464;-78
2022/01/02 05:41:48;;;;;;;21.50;13.35;;;;;;;;;;5036145;28;20380;-82
2022/01/02 05:44:15;;;;;;;19.27;12.93;;;;;;;;;;5036471;28;20487;-80
2022/01/02 05:46:41;;;;;;;21.23;13.82;;;;;;;;;;5053855;28;20044;-81
2022/01/02 05:49:10;;;;;;;23.33;13.93;;;;;;;;;;5055773;28;20036;-87
2022/01/02 05:58:35;;;;;;;24.77;13.93;;;;;;;;;;4917760;29;20452;-83
2022/01/02 06:01:01;;;;;;;27.70;13.63;;;;;;;;;;4919644;29;20054;-82
2022/01/02 06:03:27;;;;;;;28.33;12.80;;;;;;;;;;4954584;28;20484;-81
2022/01/02 06:05:55;;;;;;;20.45;11.70;;;;;;;;;;4999771;28;20056;-86
2022/01/02 06:08:30;;;;;;;22.38;11.90;;;;;;;;;;5036338;28;20431;-87
2022/01/02 06:10:56;;;;;;;20.50;11.63;;;;;;;;;;5035710;28;20041;-82
2022/01/02 06:13:22;;;;;;;24.38;12.30;;;;;;;;;;5043308;28;20044;-81
2022/01/02 06:15:49;;;;;;;21.63;11.90;;;;;;;;;;5057516;28;20037;-84
2022/01/02 06:18:15;;;;;;;23.33;12.27;;;;;;;;;;5058287;28;20036;-85
2022/01/02 06:20:43;;;;;;;23.05;11.82;;;;;;;;;;5045855;28;20076;-88
2022/01/02 06:23:12;;;;;;;22.52;12.30;;;;;;;;;;5036665;28;20044;-86
2022/01/02 06:25:39;;;;;;;22.27;10.85;;;;;;;;;;5055498;28;20044;-81
2022/01/02 06:28:14;;;;;;;20.27;11.45;;;;;;;;;;5059657;28;20135;-85
2022/01/02 06:30:45;;;;;;;18.02;10.25;;;;;;;;;;5059572;28;20052;-86
2022/01/02 06:33:11;;;;;;;17.65;10.45;;;;;;;;;;5039953;28;20128;-80
2022/01/02 06:35:37;;;;;;;15.68;10.25;;;;;;;;;;5039537;28;20102;-81
2022/01/02 06:38:11;;;;;;;18.65;10.75;;;;;;;;;;5056156;28;20041;-81
2022/01/02 06:40:37;;;;;;;14.35;9.57;;;;;;;;;;5039847;28;20098;-81
2022/01/02 06:43:03;;;;;;;11.93;8.77;;;;;;;;;;5039297;28;20051;-81
2022/01/02 06:45:30;;;;;;;14.77;10.10;;;;;;;;;;5039437;28;20472;-83
2022/01/02 06:47:56;;;;;;;16.02;8.90;;;;;;;;;;5058285;28;20391;-81
2022/01/02 06:50:22;;;;;;;16.77;9.15;;;;;;;;;;5058548;28;20063;-84
2022/01/02 06:52:48;;;;;;;16.63;9.90;;;;;;;;;;5059437;28;20033;-83
2022/01/02 06:55:43;;;;;;;18.15;9.63;;;;;;;;;;5075838;28;20474;-87
2022/01/02 07:01:52;;;;;;;16.65;8.07;;;;;;;;;;5049826;28;20342;-85
2022/01/02 07:04:18;;;;;;;16.10;7.95;;;;;;;;;;5059393;28;20029;-83
2022/01/02 07:06:44;;;;;;;11.68;6.93;;;;;;;;;;5056068;28;20172;-82
2022/01/02 07:09:10;;;;;;;12.15;7.32;;;;;;;;;;5038809;28;20048;-83
2022/01/02 07:15:13;;;;;;;14.35;7.00;;;;;;;;;;5040025;28;20037;-85
2022/01/02 07:17:45;;;;;;;12.60;6.50;;;;;;;;;;5057594;28;20037;-86
2022/01/02 07:20:14;;;;;;;13.55;6.68;;;;;;;;;;5058473;28;20482;-85
2022/01/02 07:22:47;;;;;;;16.45;6.97;;;;;;;;;;5059689;28;20341;-83
2022/01/02 07:25:13;;;;;;;16.13;6.65;;;;;;;;;;5057980;28;20453;-84
2022/01/02 07:27:39;;;;;;;15.13;6.63;;;;;;;;;;5054564;28;20041;-84
2022/01/02 07:30:06;;;;;;;15.07;6.63;;;;;;;;;;5039340;28;20058;-84
2022/01/02 07:32:32;;;;;;;13.73;6.75;;;;;;;;;;5038583;28;20044;-83
2022/01/02 07:35:01;;;;;;;13.50;6.93;;;;;;;;;;5055080;28;20041;-83
2022/01/02 07:37:33;;;;;;;12.90;6.80;;;;;;;;;;5055314;28;20124;-86
2022/01/02 07:40:05;;;;;;;13.48;6.25;;;;;;;;;;5058763;28;20080;-85
2022/01/02 07:42:31;;;;;;;13.15;6.35;;;;;;;;;;5057822;28;20051;-82
2022/01/02 07:44:58;;;;;;;17.95;7.10;;;;;;;;;;5055675;28;20059;-79
2022/01/02 07:47:24;;;;;;;16.45;7.20;;;;;;;;;;5075280;28;20049;-80
2022/01/02 07:49:50;;;;;;;7.80;5.13;;;;;;;;;;5074910;28;20033;-78
2022/01/02 07:52:16;;;;;;;7.80;4.30;;;;;;;;;;5075586;28;20048;-81
2022/01/02 07:54:42;;;;;;;7.68;4.70;;;;;;;;;;5073289;28;20364;-79
2022/01/02 07:57:08;;;;;;;7.90;4.97;;;;;;;;;;5058009;28;20468;-81
2022/01/02 07:59:34;;;;;;;8.27;4.60;;;;;;;;;;5055052;28;20052;-83
2022/01/02 08:02:19;;;;;;;8.32;4.90;;;;;;;;;;5037924;28;20040;-86
2022/01/02 08:04:45;;;;;;;9.65;4.80;;;;;;;;;;5038314;28;20423;-84
2022/01/02 08:07:11;;;;;;;8.27;4.80;;;;;;;;;;5038485;28;20045;-82
2022/01/02 08:09:37;;;;;;;7.85;4.78;;;;;;;;;;5038143;28;20126;-82
2022/01/02 08:12:03;;;;;;;9.40;5.35;;;;;;;;;;5038264;28;20049;-84
2022/01/02 08:14:31;;;;;;;8.15;5.10;;;;;;;;;;5038928;28;20123;-82
2022/01/02 08:16:57;;;;;;;10.50;5.20;;;;;;;;;;5056255;28;20465;-83
2022/01/02 08:19:23;;;;;;;9.07;4.97;;;;;;;;;;5056135;28;20401;-84
2022/01/02 08:21:49;;;;;;;8.50;4.70;;;;;;;;;;5044230;28;20438;-87
2022/01/02 08:24:15;;;;;;;5.32;4.45;;;;;;;;;;5037943;28;20049;-81
2022/01/02 08:26:41;;;;;;;7.63;4.47;;;;;;;;;;5037728;28;20051;-81
2022/01/02 08:29:07;;;;;;;7.95;4.47;;;;;;;;;;5037641;28;20076;-81
2022/01/02 08:31:33;;;;;;;7.55;5.10;;;;;;;;;;5037858;28;20037;-82
2022/01/02 08:34:00;;;;;;;7.55;4.97;;;;;;;;;;5040385;28;20051;-84
2022/01/02 08:36:32;;;;;;;9.35;5.05;;;;;;;;;;5056962;28;20479;-84
2022/01/02 08:38:58;;;;;;;8.63;5.57;;;;;;;;;;5057466;28;20044;-83
2022/01/02 08:41:24;;;;;;;10.00;6.07;;;;;;;;;;5055811;28;20131;-82
2022/01/02 08:43:50;;;;;;;10.30;6.40;;;;;;;;;;5037533;28;20372;-82
2022/01/02 08:46:16;;;;;;;12.48;7.35;;;;;;;;;;5037581;28;20051;-82
2022/01/02 08:48:42;;;;;;;11.35;6.88;;;;;;;;;;5047302;28;20060;-82
2022/01/02 08:51:11;;;;;;;10.43;7.25;;;;;;;;;;5054287;28;20040;-83
2022/01/02 08:53:40;;;;;;;10.40;6.65;;;;;;;;;;5037171;28;20033;-86
2022/01/02 08:56:07;;;;;;;10.25;7.25;;;;;;;;;;5037647;28;20055;-83
2022/01/02 08:58:33;;;;;;;9.63;7.40;;;;;;;;;;5054263;28;20124;-82
2022/01/02 09:01:00;;;;;;;10.43;7.47;;;;;;;;;;5057236;28;20102;-81
2022/01/02 09:03:48;;;;;;;10.80;7.45;;;;;;;;;;5073636;28;20048;-86
2022/01/02 09:06:15;;;;;;;9.70;7.90;;;;;;;;;;5055084;28;20380;-81
2022/01/02 09:08:41;;;;;;;8.93;7.10;;;;;;;;;;5056221;28;20072;-80
2022/01/02 09:11:07;;;;;;;11.07;7.45;;;;;;;;;;5056172;28;20053;-80
2022/01/02 09:13:34;;;;;;;9.90;7.07;;;;;;;;;;5072482;28;20064;-79
2022/01/02 09:16:00;;;;;;;10.52;7.50;;;;;;;;;;5056837;28;20040;-79
2022/01/02 09:18:26;;;;;;;8.15;6.35;;;;;;;;;;5073479;28;20052;-78
2022/01/02 09:20:52;;;;;;;7.63;6.22;;;;;;;;;;5073408;28;20045;-77
2022/01/02 09:23:19;;;;;;;7.53;6.80;;;;;;;;;;5074265;28;20052;-76
2022/01/02 09:25:45;;;;;;;9.68;6.85;;;;;;;;;;5057566;28;20052;-79
2022/01/02 09:28:11;;;;;;;7.55;6.75;;;;;;;;;;5048356;28;20106;-77
2022/01/02 09:30:37;;;;;;;8.45;6.80;;;;;;;;;;5054600;28;20052;-76
2022/01/02 09:33:08;;;;;;;8.93;6.85;;;;;;;;;;5068185;28;20044;-78
2022/01/02 09:35:34;;;;;;;9.77;7.07;;;;;;;;;;5066191;28;20132;-76
2022/01/02 09:38:00;;;;;;;9.15;7.38;;;;;;;;;;5073342;28;20049;-75
2022/01/02 09:40:27;;;;;;;9.52;6.90;;;;;;;;;;5064309;28;20135;-77
2022/01/02 09:42:56;;;;;;;10.55;7.18;;;;;;;;;;5064679;28;20045;-79
2022/01/02 09:45:22;;;;;;;8.98;6.63;;;;;;;;;;5048787;28;20076;-77
2022/01/02 09:47:49;;;;;;;8.38;7.00;;;;;;;;;;5073231;28;20040;-77
2022/01/02 09:50:18;;;;;;;8.55;6.80;;;;;;;;;;5072795;28;20044;-77
2022/01/02 09:52:44;;;;;;;9.48;6.72;;;;;;;;;;5073210;28;20053;-77
2022/01/02 09:55:10;;;;;;;7.85;6.57;;;;;;;;;;5074084;28;20071;-77
2022/01/02 09:57:42;;;;;;;10.35;7.35;;;;;;;;;;5070129;28;20088;-76
2022/01/02 10:00:08;;;;;;;8.45;7.07;;;;;;;;;;5057662;28;20052;-77
2022/01/02 10:02:53;;;;;;;10.70;6.93;;;;;;;;;;5067956;28;20053;-76
2022/01/02 10:05:21;;;;;;;8.80;7.35;;;;;;;;;;5057262;28;20393;-77
2022/01/02 10:07:47;;;;;;;10.98;7.60;;;;;;;;;;5058409;28;20148;-77
2022/01/02 10:10:13;;;;;;;10.38;8.00;;;;;;;;;;5077705;28;20044;-77
2022/01/02 10:12:39;;;;;;;9.98;8.00;;;;;;;;;;5074624;28;20065;-76
2022/01/02 10:15:09;;;;;;;12.23;8.55;;;;;;;;;;5076943;28;20367;-78
2022/01/02 10:17:54;;;;;;;10.88;8.48;;;;;;;;;;5077070;28;20044;-78
2022/01/02 10:20:22;;;;;;;10.32;8.50;;;;;;;;;;5070788;28;20055;-77
2022/01/02 10:23:00;;;;;;;10.95;8.52;;;;;;;;;;5056380;28;20107;-76
2022/01/02 10:25:38;;;;;;;17.33;9.65;;;;;;;;;;5057363;28;20540;-76
2022/01/02 10:28:37;;;;;;;13.35;8.73;;;;;;;;;;5056560;28;20096;-76
2022/01/02 10:31:03;;;;;;;15.00;9.32;;;;;;;;;;5012080;28;20061;-78
2022/01/02 10:33:45;;;;;;;16.08;9.55;;;;;;;;;;5056792;28;20048;-76
2022/01/02 10:36:12;;;;;;;16.00;9.95;;;;;;;;;;5070950;28;20040;-82
2022/01/02 10:38:38;;;;;;;16.92;9.77;;;;;;;;;;5056339;28;20091;-80
2022/01/02 10:41:07;;;;;;;18.50;9.07;;;;;;;;;;5039397;28;20060;-84
2022/01/02 10:43:36;;;;;;;15.30;8.98;;;;;;;;;;5056776;28;20048;-83
2022/01/02 10:46:07;;;;;;;19.67;8.55;;;;;;;;;;5057545;28;20051;-83
2022/01/02 10:48:36;;;;;;;15.43;7.35;;;;;;;;;;5073305;28;20052;-82
2022/01/02 10:51:10;;;;;;;21.25;7.60;;;;;;;;;;5059201;28;20483;-79
2022/01/02 10:53:37;;;;;;;19.38;7.50;;;;;;;;;;5049956;28;20457;-78
2022/01/02 10:56:04;;;;;;;17.15;7.30;;;;;;;;;;5057131;28;20048;-79
2022/01/02 10:58:33;;;;;;;15.40;6.93;;;;;;;;;;5075808;28;20040;-78
2022/01/02 11:01:05;;;;;;;21.35;6.07;;;;;;;;;;5072006;28;20055;-77
2022/01/02 11:03:31;;;;;;;18.58;6.65;;;;;;;;;;5075264;28;20063;-78
2022/01/02 11:06:01;;;;;;;18.02;6.15;;;;;;;;;;5075054;28;20048;-78
2022/01/02 11:08:30;;;;;;;21.02;7.25;;;;;;;;;;5056504;28;20048;-79
2022/01/02 11:10:56;;;;;;;20.42;6.57;;;;;;;;;;5054442;28;20060;-77
2022/01/02 11:13:22;;;;;;;15.63;6.35;;;;;;;;;;5056599;28;20084;-79
2022/01/02 11:15:48;;;;;;;17.17;5.70;;;;;;;;;;5055858;28;20041;-78
2022/01/02 11:18:15;;;;;;;17.65;6.22;;;;;;;;;;5072588;28;20449;-78
2022/01/02 11:20:41;;;;;;;18.27;6.63;;;;;;;;;;5059112;28;20048;-77
2022/01/02 11:23:12;;;;;;;19.90;6.53;;;;;;;;;;5058651;28;20067;-77
2022/01/02 11:25:50;;;;;;;20.00;6.22;;;;;;;;;;5076729;28;20091;-77
2022/01/02 11:28:25;;;;;;;23.52;6.03;;;;;;;;;;5076625;28;20063;-78
2022/01/02 11:30:52;;;;;;;19.38;6.30;;;;;;;;;;5069642;28;20048;-79
2022/01/02 11:33:25;;;;;;;19.92;5.85;;;;;;;;;;5055537;28;20128;-78
2022/01/02 11:35:52;;;;;;;22.27;5.95;;;;;;;;;;5073827;28;20074;-79
2022/01/02 11:38:21;;;;;;;17.38;5.78;;;;;;;;;;5064747;28;20468;-77
2022/01/02 11:40:49;;;;;;;20.40;6.57;;;;;;;;;;5055496;28;20052;-77
2022/01/02 11:43:34;;;;;;;18.90;7.13;;;;;;;;;;5055205;28;20060;-77
2022/01/02 11:46:16;;;;;;;22.13;7.35;;;;;;;;;;5056112;28;20118;-77
2022/01/02 11:48:43;;;;;;;20.48;7.60;;;;;;;;;;5055553;28;20045;-76
2022/01/02 11:51:09;;;;;;;24.52;6.80;;;;;;;;;;5056200;28;20099;-77
2022/01/02 11:53:35;;;;;;;27.35;12.68;;;;;;;;;;5054867;28;20511;-76
2022/01/02 11:56:02;;;;;;;22.88;6.43;;;;;;;;;;5070381;28;20048;-77
2022/01/02 11:58:46;;;;;;;20.67;5.80;;;;;;;;;;5075460;28;20105;-77
2022/01/02 12:01:32;;;;;;;22.48;5.53;;;;;;;;;;5070891;28;20056;-78
2022/01/02 12:03:58;;;;;;;28.65;6.55;;;;;;;;;;5060321;28;20048;-77
2022/01/02 12:06:35;;;;;;;15.30;5.22;;;;;;;;;;5057396;28;20049;-77
2022/01/02 12:09:03;;;;;;;24.95;6.25;;;;;;;;;;5054652;28;20139;-75
2022/01/02 12:11:32;;;;;;;21.85;5.85;;;;;;;;;;5056942;28;20080;-76
2022/01/02 12:14:05;;;;;;;18.80;6.18;;;;;;;;;;5074509;28;20487;-77
2022/01/02 12:16:35;;;;;;;16.67;4.50;;;;;;;;;;5074290;28;20056;-77
2022/01/02 12:19:03;;;;;;;16.98;5.13;;;;;;;;;;5055310;28;20053;-77
2022/01/02 12:21:30;;;;;;;16.42;4.75;;;;;;;;;;5054768;28;20072;-78
2022/01/02 12:23:57;;;;;;;16.00;4.90;;;;;;;;;;5058652;28;20052;-79
2022/01/02 12:26:28;;;;;;;15.43;4.47;;;;;;;;;;5074552;28;20106;-76
2022/01/02 12:28:57;;;;;;;15.25;4.63;;;;;;;;;;5074950;28;20048;-76
2022/01/02 12:31:30;;;;;;;15.55;5.72;;;;;;;;;;5073680;28;20044;-77
2022/01/02 12:34:04;;;;;;;17.25;4.95;;;;;;;;;;5055381;28;20052;-76
2022/01/02 12:36:30;;;;;;;18.65;4.50;;;;;;;;;;5055140;28;20128;-77
2022/01/02 12:39:01;;;;;;;14.43;4.78;;;;;;;;;;5038819;28;20059;-77
2022/01/02 12:41:29;;;;;;;19.45;3.63;;;;;;;;;;5054747;28;20052;-77
2022/01/02 12:43:56;;;;;;;15.52;4.53;;;;;;;;;;5061439;28;20123;-76
2022/01/02 12:46:37;;;;;;;13.18;3.53;;;;;;;;;;5074401;28;20044;-77
2022/01/02 12:49:05;;;;;;;10.10;3.53;;;;;;;;;;5057812;28;20128;-76
2022/01/02 12:51:33;;;;;;;11.77;3.72;;;;;;;;;;5069082;28;20123;-77
2022/01/02 12:54:05;;;;;;;11.27;3.40;;;;;;;;;;5074587;28;20063;-76
2022/01/02 12:56:41;;;;;;;9.88;3.30;;;;;;;;;;5074562;28;20178;-77
2022/01/02 12:59:20;;;;;;;13.90;3.28;;;;;;;;;;5074250;28;20052;-76
2022/01/02 13:01:51;;;;;;;9.27;2.97;;;;;;;;;;5055067;28;20092;-77
2022/01/02 13:04:17;;;;;;;13.07;3.10;;;;;;;;;;5071172;28;20049;-77
2022/01/02 13:06:47;;;;;;;12.15;3.17;;;;;;;;;;5069686;28;20052;-75
2022/01/02 13:09:21;;;;;;;12.35;3.63;;;;;;;;;;5073736;28;20060;-77
2022/01/02 13:11:47;;;;;;;11.82;3.40;;;;;;;;;;5073626;28;20075;-77
2022/01/02 13:14:13;;;;;;;17.60;3.92;;;;;;;;;;5070404;28;20041;-76
2022/01/02 13:16:39;;;;;;;12.82;3.30;;;;;;;;;;5054021;28;20048;-77
2022/01/02 13:19:06;;;;;;;12.23;3.55;;;;;;;;;;5055070;28;20102;-77
2022/01/02 13:21:32;;;;;;;12.75;3.72;;;;;;;;;;5054902;28;20051;-77
2022/01/02 13:24:17;;;;;;;16.48;3.70;;;;;;;;;;5053588;28;20116;-78
2022/01/02 13:26:43;;;;;;;13.00;3.10;;;;;;;;;;5037076;28;20053;-77
2022/01/02 13:29:09;;;;;;;13.50;3.65;;;;;;;;;;5067949;28;20054;-79
2022/01/02 13:31:35;;;;;;;13.95;3.35;;;;;;;;;;5072064;28;20471;-76
2022/01/02 13:34:01;;;;;;;14.13;3.78;;;;;;;;;;5073492;28;20044;-77
2022/01/02 13:36:28;;;;;;;12.10;3.15;;;;;;;;;;5072863;28;20059;-79
2022/01/02 13:38:56;;;;;;;11.20;3.20;;;;;;;;;;5061829;28;20453;-79
2022/01/02 13:41:23;;;;;;;11.38;3.30;;;;;;;;;;5055482;28;20095;-76
2022/01/02 13:43:51;;;;;;;11.70;3.95;;;;;;;;;;5050288;28;20049;-76
2022/01/02 13:46:18;;;;;;;15.90;3.95;;;;;;;;;;5073066;28;20053;-74
2022/01/02 13:48:44;;;;;;;17.17;4.80;;;;;;;;;;5074181;28;20138;-77
2022/01/02 13:51:20;;;;;;;12.45;3.75;;;;;;;;;;5073187;28;20135;-78
2022/01/02 13:53:48;;;;;;;;;;;;;;;;;;5074429;28;20092;-77
2022/01/02 13:56:17;;;;;;;10.35;3.15;;;;;;;;;;5073061;28;19920;-76
2022/01/02 13:58:43;;;;;;;15.00;3.25;;;;;;;;;;5073233;28;20067;-78
2022/01/02 14:01:25;;;;;;;12.38;3.13;;;;;;;;;;5052809;28;20136;-77
2022/01/02 14:04:04;;;;;;;14.50;3.90;;;;;;;;;;5069150;28;20406;-77
2022/01/02 14:06:31;;;;;;;13.43;3.13;;;;;;;;;;5063036;28;20059;-76
2022/01/02 14:09:04;;;;;;;12.40;3.20;;;;;;;;;;5073276;28;20460;-76
2022/01/02 14:11:31;;;;;;;12.50;3.53;;;;;;;;;;5072697;28;20186;-77
2022/01/02 14:14:14;;;;;;;11.68;3.17;;;;;;;;;;5073239;28;20059;-75
2022/01/02 14:17:00;;;;;;;14.43;3.65;;;;;;;;;;5072622;28;20052;-77
2022/01/02 14:19:26;;;;;;;11.55;3.38;;;;;;;;;;5073775;28;20041;-76
2022/01/02 14:21:52;;;;;;;14.52;3.63;;;;;;;;;;5071723;28;20090;-74
2022/01/02 14:24:18;;;;;;;11.27;2.92;;;;;;;;;;5065544;28;20144;-78
2022/01/02 14:26:44;;;;;;;15.43;3.58;;;;;;;;;;5058388;28;20334;-78
2022/01/02 14:29:10;;;;;;;14.80;3.53;;;;;;;;;;5072767;28;20052;-75
2022/01/02 14:31:36;;;;;;;15.43;4.03;;;;;;;;;;5073268;28;20117;-77
2022/01/02 14:34:03;;;;;;;14.63;3.28;;;;;;;;;;5070523;28;20049;-76
2022/01/02 14:36:29;;;;;;;14.23;2.80;;;;;;;;;;5062162;28;20175;-77
2022/01/02 14:38:55;;;;;;;8.02;2.70;;;;;;;;;;5067686;28;20384;-77
2022/01/02 14:41:21;;;;;;;12.82;3.88;;;;;;;;;;5052398;28;20132;-76
2022/01/02 14:43:49;;;;;;;15.50;3.97;;;;;;;;;;5053315;28;20041;-76
2022/01/02 14:46:15;;;;;;;14.70;5.28;;;;;;;;;;5073525;28;20049;-76
2022/01/02 14:48:41;;;;;;;17.23;6.28;;;;;;;;;;5074848;28;20044;-76
2022/01/02 14:51:07;;;;;;;21.90;8.15;;;;;;;;;;5064255;28;20037;-77
2022/01/02 14:53:36;;;;;;;19.45;7.07;;;;;;;;;;5067825;28;20137;-75
2022/01/02 14:56:02;;;;;;;14.85;5.70;;;;;;;;;;5060697;28;20045;-78
2022/01/02 14:58:28;;;;;;;13.45;4.07;;;;;;;;;;5076038;28;20053;-78
2022/01/02 15:00:56;;;;;;;9.85;3.20;;;;;;;;;;5060094;28;20119;-77
2022/01/02 15:03:22;;;;;;;12.18;3.40;;;;;;;;;;5076653;28;20059;-77
2022/01/02 15:05:48;;;;;;;15.05;3.80;;;;;;;;;;5053509;28;20464;-75
2022/01/02 15:08:14;;;;;;;9.88;3.50;;;;;;;;;;5075609;28;20102;-76
2022/01/02 15:10:40;;;;;;;10.25;3.15;;;;;;;;;;5076424;28;20053;-77
2022/01/02 15:13:08;;;;;;;13.57;3.10;;;;;;;;;;5070139;28;20129;-76
2022/01/02 15:15:34;;;;;;;14.27;3.70;;;;;;;;;;5076631;28;20059;-76
2022/01/02 15:18:00;;;;;;;6.60;2.40;;;;;;;;;;5075554;28;20049;-77
2022/01/02 15:20:27;;;;;;;10.02;3.70;;;;;;;;;;5074651;28;20048;-76
2022/01/02 15:22:54;;;;;;;19.10;5.18;;;;;;;;;;5076203;28;20059;-75
2022/01/02 15:25:20;;;;;;;13.02;3.47;;;;;;;;;;5074767;28;20052;-77
2022/01/02 15:27:46;;;;;;;21.52;4.30;;;;;;;;;;5059249;28;20175;-78
2022/01/02 15:30:14;;;;;;;17.25;4.20;;;;;;;;;;5056858;28;20059;-76
2022/01/02 15:32:40;;;;;;;17.48;5.13;;;;;;;;;;5039034;28;20041;-75
2022/01/02 15:35:15;;;;;;;14.63;4.95;;;;;;;;;;5067625;28;20044;-76
2022/01/02 15:37:42;;;;;;;18.55;5.28;;;;;;;;;;5060510;28;20474;-76
2022/01/02 15:40:08;;;;;;;15.95;4.25;;;;;;;;;;5055700;28;20583;-76